createdAt,value
2018-10-09T00:02:12.785Z,42.30
2018-10-09T00:04:40.991Z,42.70
2018-10-09T00:07:09.226Z,41.33
2018-10-09T00:09:37.441Z,46.23
2018-10-09T00:12:05.654Z,44.73
2018-10-09T00:14:33.852Z,43.33
2018-10-09T00:17:02.065Z,42.43
2018-10-09T00:19:30.345Z,39.13
2018-10-09T00:21:58.565Z,40.70
2018-10-09T00:24:26.754Z,39.60
2018-10-09T00:26:54.964Z,36.37
2018-10-09T00:29:23.235Z,46.03
2018-10-09T00:31:51.504Z,44.60
2018-10-09T00:34:19.716Z,50.47
2018-10-09T00:36:47.945Z,42.83
2018-10-09T00:39:16.175Z,39.10
2018-10-09T00:41:44.375Z,41.27
2018-10-09T00:44:12.684Z,41.87
2018-10-09T00:46:40.902Z,42.13
2018-10-09T00:49:09.118Z,40.20
2018-10-09T00:51:37.304Z,38.43
2018-10-09T00:54:05.510Z,37.17
2018-10-09T00:56:33.764Z,36.67
2018-10-09T00:59:02.101Z,38.47
2018-10-09T01:01:30.294Z,34.10
2018-10-09T01:03:58.539Z,35.93
2018-10-09T01:06:26.787Z,34.90
2018-10-09T01:08:55.060Z,33.70
2018-10-09T01:11:23.296Z,35.70
2018-10-09T01:13:51.577Z,35.53
2018-10-09T01:16:19.778Z,41.17
2018-10-09T01:18:47.989Z,38.33
2018-10-09T01:21:16.194Z,35.37
2018-10-09T01:23:44.388Z,39.23
2018-10-09T01:26:19.265Z,41.77
2018-10-09T01:28:47.458Z,40.80
2018-10-09T01:31:15.655Z,39.50
2018-10-09T01:33:43.852Z,43.27
2018-10-09T01:36:12.061Z,41.37
2018-10-09T01:38:40.315Z,41.07
2018-10-09T01:41:08.482Z,40.47
2018-10-09T01:43:36.692Z,47.87
2018-10-09T01:46:04.912Z,40.37
2018-10-09T01:48:33.108Z,46.40
2018-10-09T01:51:01.346Z,47.07
2018-10-09T01:53:29.529Z,46.17
2018-10-09T01:55:57.808Z,49.40
2018-10-09T01:58:26.005Z,47.30
2018-10-09T02:00:54.224Z,46.03
2018-10-09T02:03:22.450Z,47.40
2018-10-09T02:05:50.624Z,53.87
2018-10-09T02:08:18.865Z,46.30
2018-10-09T02:10:47.060Z,48.73
2018-10-09T02:13:15.258Z,42.73
2018-10-09T02:15:43.447Z,39.97
2018-10-09T02:18:11.633Z,42.37
2018-10-09T02:20:39.862Z,42.93
2018-10-09T02:23:08.061Z,38.10
2018-10-09T02:25:36.264Z,39.63
2018-10-09T02:28:04.476Z,43.30
2018-10-09T02:30:32.664Z,42.43
2018-10-09T02:33:00.917Z,39.73
2018-10-09T02:35:29.128Z,42.17
2018-10-09T02:37:57.348Z,49.83
2018-10-09T02:40:26.348Z,42.80
2018-10-09T02:42:54.555Z,48.47
2018-10-09T02:45:22.785Z,48.27
2018-10-09T02:47:50.973Z,48.10
2018-10-09T02:50:19.220Z,49.20
2018-10-09T02:52:47.441Z,50.83
2018-10-09T02:55:15.655Z,47.63
2018-10-09T02:57:43.977Z,50.87
2018-10-09T03:00:12.212Z,46.07
2018-10-09T03:02:40.429Z,44.33
2018-10-09T03:05:08.684Z,48.07
2018-10-09T03:07:36.872Z,46.77
2018-10-09T03:10:05.156Z,43.70
2018-10-09T03:12:33.332Z,43.57
2018-10-09T03:15:01.576Z,46.47
2018-10-09T03:17:29.768Z,44.23
2018-10-09T03:19:57.964Z,43.90
2018-10-09T03:22:26.200Z,52.93
2018-10-09T03:24:54.404Z,46.93
2018-10-09T03:27:22.605Z,49.77
2018-10-09T03:29:50.799Z,47.77
2018-10-09T03:32:18.996Z,53.17
2018-10-09T03:34:47.232Z,47.50
2018-10-09T03:37:15.408Z,45.60
2018-10-09T03:39:43.612Z,48.90
2018-10-09T03:42:11.800Z,51.60
2018-10-09T03:44:39.965Z,51.30
2018-10-09T03:47:08.213Z,52.03
2018-10-09T03:49:36.647Z,49.97
2018-10-09T03:52:04.874Z,56.03
2018-10-09T03:54:33.100Z,53.13
2018-10-09T03:57:01.323Z,57.70
2018-10-09T03:59:29.599Z,49.40
2018-10-09T04:01:57.840Z,51.60
2018-10-09T04:04:26.030Z,49.50
2018-10-09T04:06:54.295Z,51.87
2018-10-09T04:09:22.482Z,53.23
2018-10-09T04:11:50.700Z,61.13
2018-10-09T04:14:18.888Z,54.97
2018-10-09T04:16:47.065Z,60.77
2018-10-09T04:19:15.276Z,60.20
2018-10-09T04:21:43.484Z,65.17
2018-10-09T04:24:11.712Z,74.30
2018-10-09T04:26:39.901Z,76.07
2018-10-09T04:29:08.113Z,79.00
2018-10-09T04:31:36.319Z,87.30
2018-10-09T04:34:04.528Z,77.63
2018-10-09T04:36:32.785Z,77.00
2018-10-09T04:39:00.986Z,80.13
2018-10-09T04:41:29.228Z,83.63
2018-10-09T04:43:57.441Z,81.13
2018-10-09T04:46:25.677Z,82.83
2018-10-09T04:48:53.911Z,86.90
2018-10-09T04:51:22.130Z,83.33
2018-10-09T04:53:50.312Z,88.53
2018-10-09T04:56:18.562Z,84.93
2018-10-09T04:58:46.833Z,87.57
2018-10-09T05:01:15.073Z,79.50
2018-10-09T05:03:43.240Z,92.60
2018-10-09T05:06:11.416Z,99.60
2018-10-09T05:08:39.584Z,99.70
2018-10-09T05:11:07.764Z,106.33
2018-10-09T05:13:35.977Z,110.13
2018-10-09T05:16:04.331Z,124.83
2018-10-09T05:18:32.509Z,116.80
2018-10-09T05:21:00.708Z,113.77
2018-10-09T05:23:28.960Z,109.97
2018-10-09T05:25:57.188Z,126.33
2018-10-09T05:28:25.364Z,135.57
2018-10-09T05:30:53.542Z,109.47
2018-10-09T05:33:21.816Z,121.90
2018-10-09T05:35:50.014Z,115.37
2018-10-09T05:38:18.212Z,102.57
2018-10-09T05:40:46.432Z,115.57
2018-10-09T05:43:14.601Z,104.83
2018-10-09T05:45:42.760Z,106.07
2018-10-09T05:48:11.036Z,109.97
2018-10-09T05:50:39.597Z,112.00
2018-10-09T05:53:07.763Z,115.20
2018-10-09T05:55:36.631Z,114.43
2018-10-09T05:58:04.923Z,117.33
2018-10-09T06:00:33.085Z,112.23
2018-10-09T06:03:01.276Z,99.00
2018-10-09T06:05:30.084Z,110.43
2018-10-09T06:07:58.264Z,106.50
2018-10-09T06:10:26.445Z,113.00
2018-10-09T06:12:54.629Z,119.17
2018-10-09T06:15:22.811Z,112.83
2018-10-09T06:17:50.978Z,105.97
2018-10-09T06:20:19.204Z,103.87
2018-10-09T06:22:47.480Z,101.40
2018-10-09T06:25:15.729Z,110.43
2018-10-09T06:27:43.976Z,112.07
2018-10-09T06:30:12.152Z,107.03
2018-10-09T06:32:40.382Z,130.10
2018-10-09T06:35:08.548Z,129.87
2018-10-09T06:37:36.716Z,118.23
2018-10-09T06:40:04.992Z,112.23
2018-10-09T06:42:33.195Z,111.17
2018-10-09T06:45:01.496Z,107.40
2018-10-09T06:47:29.717Z,107.07
2018-10-09T06:49:57.880Z,108.87
2018-10-09T06:52:26.073Z,99.57
2018-10-09T06:54:54.317Z,96.03
2018-10-09T06:57:22.495Z,94.93
2018-10-09T06:59:50.707Z,102.47
2018-10-09T07:02:18.885Z,107.13
2018-10-09T07:04:47.069Z,97.07
2018-10-09T07:07:15.251Z,107.00
2018-10-09T07:09:43.481Z,97.63
2018-10-09T07:12:11.664Z,93.50
2018-10-09T07:14:39.842Z,96.07
2018-10-09T07:17:08.095Z,84.97
2018-10-09T07:19:36.241Z,86.43
2018-10-09T07:22:04.481Z,91.70
2018-10-09T07:24:32.793Z,96.90
2018-10-09T07:27:01.201Z,93.30
2018-10-09T07:29:29.369Z,92.90
2018-10-09T07:31:57.540Z,94.33
2018-10-09T07:34:25.761Z,85.13
2018-10-09T07:36:53.936Z,88.07
2018-10-09T07:39:22.096Z,92.17
2018-10-09T07:41:50.265Z,91.90
2018-10-09T07:44:18.468Z,92.07
2018-10-09T07:46:46.697Z,85.70
2018-10-09T07:49:14.901Z,96.97
2018-10-09T07:51:43.082Z,96.93
2018-10-09T07:54:11.293Z,89.70
2018-10-09T07:56:39.525Z,90.00
2018-10-09T07:59:07.770Z,90.10
2018-10-09T08:01:35.937Z,89.63
2018-10-09T08:04:04.140Z,93.60
2018-10-09T08:06:32.356Z,88.70
2018-10-09T08:09:00.649Z,85.07
2018-10-09T08:11:28.882Z,87.33
2018-10-09T08:13:57.724Z,88.27
2018-10-09T08:19:00.960Z,95.97
2018-10-09T08:21:29.160Z,93.97
2018-10-09T08:23:57.379Z,99.50
2018-10-09T08:26:25.658Z,95.70
2018-10-09T08:28:53.924Z,98.27
2018-10-09T08:31:22.124Z,93.83
2018-10-09T08:33:50.406Z,96.57
2018-10-09T08:36:18.628Z,89.80
2018-10-09T08:38:46.924Z,96.13
2018-10-09T08:41:15.158Z,90.50
2018-10-09T08:43:43.417Z,85.37
2018-10-09T08:46:11.656Z,89.97
2018-10-09T08:48:40.341Z,90.07
2018-10-09T08:51:08.532Z,85.30
2018-10-09T08:53:36.724Z,83.93
2018-10-09T08:56:04.916Z,98.17
2018-10-09T08:58:33.101Z,94.53
2018-10-09T09:01:01.312Z,91.30
2018-10-09T09:03:29.501Z,88.77
2018-10-09T09:05:57.696Z,80.73
2018-10-09T09:08:25.872Z,77.37
2018-10-09T09:10:54.057Z,75.70
2018-10-09T09:13:22.268Z,75.03
2018-10-09T09:15:50.500Z,71.13
2018-10-09T09:18:18.699Z,78.70
2018-10-09T09:20:46.965Z,72.93
2018-10-09T09:23:15.149Z,83.97
2018-10-09T09:25:43.437Z,72.57
2018-10-09T09:28:11.789Z,69.63
2018-10-09T09:30:39.977Z,68.27
2018-10-09T09:33:08.191Z,75.93
2018-10-09T09:35:36.445Z,69.47
2018-10-09T09:38:04.672Z,67.70
2018-10-09T09:40:32.871Z,68.40
2018-10-09T09:43:01.058Z,64.30
2018-10-09T09:45:29.249Z,69.70
2018-10-09T09:47:57.444Z,63.80
2018-10-09T09:50:25.648Z,68.67
2018-10-09T09:52:53.825Z,62.67
2018-10-09T09:55:21.996Z,64.00
2018-10-09T09:57:50.264Z,62.40
2018-10-09T10:00:23.796Z,67.73
2018-10-09T10:02:52.041Z,61.83
2018-10-09T10:05:20.232Z,60.80
2018-10-09T10:07:48.417Z,58.20
2018-10-09T10:10:16.624Z,57.20
2018-10-09T10:12:44.809Z,58.07
2018-10-09T10:15:13.029Z,55.67
2018-10-09T10:17:41.192Z,55.07
2018-10-09T10:20:09.428Z,54.00
2018-10-09T10:22:37.748Z,54.00
2018-10-09T10:25:05.949Z,50.17
2018-10-09T10:27:34.340Z,53.63
2018-10-09T10:30:02.521Z,45.03
2018-10-09T10:32:30.774Z,46.73
2018-10-09T10:34:58.957Z,44.27
2018-10-09T10:37:27.125Z,42.30
2018-10-09T10:39:55.373Z,40.57
2018-10-09T10:42:23.558Z,39.43
2018-10-09T10:44:51.740Z,40.17
2018-10-09T10:47:19.932Z,40.17
2018-10-09T10:49:48.109Z,33.83
2018-10-09T10:52:16.329Z,31.47
2018-10-09T10:54:44.528Z,33.63
2018-10-09T10:57:12.722Z,32.30
2018-10-09T10:59:40.905Z,33.57
2018-10-09T11:02:09.108Z,32.17
2018-10-09T11:04:37.335Z,32.90
2018-10-09T11:07:05.517Z,30.97
2018-10-09T11:09:33.713Z,27.97
2018-10-09T11:12:01.904Z,25.33
2018-10-09T11:14:30.101Z,23.03
2018-10-09T11:16:58.337Z,25.93
2018-10-09T11:19:26.514Z,25.97
2018-10-09T11:21:54.676Z,22.43
2018-10-09T11:24:22.864Z,29.00
2018-10-09T11:26:51.021Z,25.73
2018-10-09T11:29:19.364Z,29.27
2018-10-09T11:31:47.570Z,28.03
2018-10-09T11:34:15.805Z,23.63
2018-10-09T11:36:43.965Z,23.73
2018-10-09T11:39:12.208Z,19.43
2018-10-09T11:41:40.404Z,21.13
2018-10-09T11:44:08.602Z,20.03
2018-10-09T11:46:37.333Z,19.07
2018-10-09T11:49:06.056Z,19.27
2018-10-09T11:51:34.233Z,17.53
2018-10-09T11:54:02.525Z,20.43
2018-10-09T11:56:30.903Z,19.40
2018-10-09T11:58:59.130Z,20.33
2018-10-09T12:01:27.335Z,18.12
2018-10-09T12:03:55.507Z,17.13
2018-10-09T12:06:23.745Z,17.83
2018-10-09T12:08:51.901Z,15.30
2018-10-09T12:11:20.092Z,16.50
2018-10-09T12:13:48.280Z,15.90
2018-10-09T12:16:16.633Z,15.97
2018-10-09T12:18:44.852Z,21.77
2018-10-09T12:21:13.035Z,14.40
2018-10-09T12:23:41.198Z,15.90
2018-10-09T12:26:09.360Z,14.40
2018-10-09T12:28:37.524Z,16.43
2018-10-09T12:31:05.799Z,14.67
2018-10-09T12:33:33.953Z,13.87
2018-10-09T12:36:02.128Z,14.07
2018-10-09T12:38:30.361Z,17.30
2018-10-09T12:40:58.579Z,16.73
2018-10-09T12:43:26.836Z,14.03
2018-10-09T12:45:55.184Z,13.53
2018-10-09T12:48:23.393Z,15.58
2018-10-09T12:50:51.551Z,11.90
2018-10-09T12:53:19.759Z,11.90
2018-10-09T12:55:48.045Z,11.77
2018-10-09T12:58:16.222Z,13.63
2018-10-09T13:00:44.433Z,14.30
2018-10-09T13:03:12.682Z,13.33
2018-10-09T13:05:40.809Z,14.13
2018-10-09T13:08:09.034Z,15.37
2018-10-09T13:10:37.188Z,11.50
2018-10-09T13:13:05.378Z,10.97
2018-10-09T13:15:33.557Z,11.93
2018-10-09T13:18:01.737Z,11.83
2018-10-09T13:20:29.946Z,11.27
2018-10-09T13:22:58.183Z,10.47
2018-10-09T13:25:26.335Z,10.77
2018-10-09T13:27:54.533Z,11.13
2018-10-09T13:30:22.838Z,11.10
2018-10-09T13:32:51.076Z,11.33
2018-10-09T13:35:19.237Z,9.67
2018-10-09T13:37:47.461Z,10.17
2018-10-09T13:40:15.629Z,10.47
2018-10-09T13:42:43.821Z,10.10
2018-10-09T13:45:12.046Z,13.70
2018-10-09T13:47:40.317Z,9.70
2018-10-09T13:50:08.425Z,11.40
2018-10-09T13:52:36.610Z,11.07
2018-10-09T13:55:04.799Z,10.20
2018-10-09T13:57:33.022Z,10.13
2018-10-09T14:00:01.203Z,11.97
2018-10-09T14:02:29.368Z,11.43
2018-10-09T14:04:57.525Z,12.37
2018-10-09T14:07:25.713Z,12.43
2018-10-09T14:09:53.892Z,9.37
2018-10-09T14:12:22.052Z,11.90
2018-10-09T14:14:50.243Z,11.07
2018-10-09T14:17:18.415Z,11.70
2018-10-09T14:19:46.569Z,11.93
2018-10-09T14:22:14.829Z,12.17
2018-10-09T14:24:43.021Z,10.67
2018-10-09T14:27:11.200Z,11.03
2018-10-09T14:29:39.408Z,14.43
2018-10-09T14:32:07.597Z,11.20
2018-10-09T14:34:35.814Z,10.60
2018-10-09T14:37:04.042Z,21.23
2018-10-09T14:39:32.241Z,16.47
2018-10-09T14:42:00.422Z,24.90
2018-10-09T14:44:28.584Z,24.70
2018-10-09T14:46:56.803Z,19.93
2018-10-09T14:49:25.248Z,18.23
2018-10-09T14:51:53.412Z,15.10
2018-10-09T14:54:21.595Z,12.83
2018-10-09T14:56:49.789Z,11.90
2018-10-09T14:59:18.008Z,15.37
2018-10-09T15:01:46.184Z,14.70
2018-10-09T15:04:14.437Z,13.30
2018-10-09T15:06:42.672Z,12.27
2018-10-09T15:09:12.532Z,15.43
2018-10-09T15:11:41.048Z,12.40
2018-10-09T15:14:09.211Z,13.30
2018-10-09T15:16:37.489Z,15.27
2018-10-09T15:19:06.045Z,16.23
2018-10-09T15:21:34.226Z,12.43
2018-10-09T15:24:02.540Z,11.70
2018-10-09T15:26:30.721Z,14.20
2018-10-09T15:28:59.130Z,16.13
2018-10-09T15:31:27.462Z,15.27
2018-10-09T15:33:55.637Z,16.03
2018-10-09T15:36:23.849Z,16.33
2018-10-09T15:38:52.016Z,20.73
2018-10-09T15:41:20.289Z,27.50
2018-10-09T15:43:48.464Z,23.93
2018-10-09T15:46:16.652Z,25.10
2018-10-09T15:48:44.949Z,28.37
2018-10-09T15:51:13.148Z,25.80
2018-10-09T15:53:41.431Z,27.83
2018-10-09T15:56:09.594Z,26.33
2018-10-09T15:58:37.792Z,32.30
2018-10-09T16:01:06.065Z,33.80
2018-10-09T16:03:34.232Z,44.50
2018-10-09T16:06:02.425Z,49.47
2018-10-09T16:08:30.615Z,47.93
2018-10-09T16:10:58.768Z,46.47
2018-10-09T16:13:27.001Z,69.70
2018-10-09T16:15:55.349Z,77.30
2018-10-09T16:18:23.529Z,80.87
2018-10-09T16:20:51.812Z,113.00
2018-10-09T16:23:19.932Z,102.60
2018-10-09T16:25:48.178Z,122.87
2018-10-09T16:28:16.416Z,144.60
2018-10-09T16:30:44.585Z,160.40
2018-10-09T16:33:12.758Z,158.77
2018-10-09T16:35:40.936Z,170.47
2018-10-09T16:38:09.198Z,177.40
2018-10-09T16:40:37.488Z,185.63
2018-10-09T16:43:05.760Z,151.03
2018-10-09T16:45:33.980Z,116.43
2018-10-09T16:48:02.204Z,123.23
2018-10-09T16:50:30.480Z,112.60
2018-10-09T16:52:58.701Z,121.70
2018-10-09T16:55:26.969Z,132.37
2018-10-09T16:57:55.181Z,111.07
2018-10-09T17:00:23.507Z,93.50
2018-10-09T17:02:51.699Z,98.90
2018-10-09T17:05:19.930Z,113.63
2018-10-09T17:07:48.129Z,139.17
2018-10-09T17:10:16.342Z,151.03
2018-10-09T17:12:44.590Z,131.60
2018-10-09T17:15:12.838Z,139.43
2018-10-09T17:17:41.037Z,146.57
2018-10-09T17:20:09.259Z,129.87
2018-10-09T17:22:37.465Z,116.37
2018-10-09T17:25:05.693Z,110.97
2018-10-09T17:27:33.950Z,111.97
2018-10-09T17:30:02.163Z,183.57
2018-10-09T17:32:30.502Z,246.53
2018-10-09T17:34:58.734Z,250.90
2018-10-09T17:37:26.980Z,206.40
2018-10-09T17:39:55.283Z,190.77
2018-10-09T17:42:23.485Z,202.57
2018-10-09T17:44:51.705Z,219.57
2018-10-09T17:47:19.918Z,218.70
2018-10-09T17:49:48.117Z,223.93
2018-10-09T17:52:16.362Z,208.37
2018-10-09T17:54:44.597Z,215.37
2018-10-09T17:57:12.836Z,264.73
2018-10-09T17:59:41.038Z,262.77
2018-10-09T18:02:09.264Z,313.27
2018-10-09T18:04:37.541Z,387.43
2018-10-09T18:07:05.770Z,469.27
2018-10-09T18:09:34.017Z,456.00
2018-10-09T18:12:02.251Z,442.33
2018-10-09T18:14:30.522Z,358.40
2018-10-09T18:16:58.796Z,279.70
2018-10-09T18:19:27.010Z,246.87
2018-10-09T18:21:55.229Z,218.83
2018-10-09T18:24:23.454Z,192.90
2018-10-09T18:26:51.710Z,161.30
2018-10-09T18:29:19.972Z,144.77
2018-10-09T18:31:48.191Z,138.73
2018-10-09T18:34:16.385Z,120.67
2018-10-09T18:36:44.599Z,96.30
2018-10-09T18:39:16.063Z,85.50
2018-10-09T18:41:45.163Z,73.53
2018-10-09T18:44:13.632Z,64.73
2018-10-09T18:46:41.962Z,62.60
2018-10-09T18:49:10.208Z,84.13
2018-10-09T18:51:38.533Z,68.03
2018-10-09T18:54:06.852Z,65.13
2018-10-09T18:56:35.078Z,63.27
2018-10-09T18:59:03.316Z,68.70
2018-10-09T19:01:31.501Z,70.27
2018-10-09T19:03:59.794Z,67.47
2018-10-09T19:06:28.063Z,80.90
2018-10-09T19:08:56.248Z,73.50
2018-10-09T19:11:26.072Z,70.60
2018-10-09T19:13:54.875Z,79.20
2018-10-09T19:16:23.132Z,79.57
2018-10-09T19:18:51.540Z,83.00
2018-10-09T19:21:19.740Z,75.50
2018-10-09T19:23:48.007Z,75.27
2018-10-09T19:26:16.287Z,72.40
2018-10-09T19:28:44.482Z,68.13
2018-10-09T19:31:12.748Z,75.23
2018-10-09T19:33:40.928Z,91.83
2018-10-09T19:36:09.131Z,107.50
2018-10-09T19:38:37.313Z,99.13
2018-10-09T19:41:05.496Z,95.67
2018-10-09T19:43:33.764Z,89.53
2018-10-09T19:46:01.957Z,87.13
2018-10-09T19:48:30.156Z,80.47
2018-10-09T19:50:58.470Z,76.63
2018-10-09T19:53:26.627Z,78.57
2018-10-09T19:55:54.860Z,77.83
2018-10-09T19:58:23.057Z,77.23
2018-10-09T20:00:51.381Z,80.67
2018-10-09T20:03:19.609Z,72.40
2018-10-09T20:05:47.851Z,79.27
2018-10-09T20:08:16.183Z,75.90
2018-10-09T20:10:45.210Z,84.43
2018-10-09T20:13:13.416Z,90.27
2018-10-09T20:15:41.676Z,81.13
2018-10-09T20:18:09.921Z,88.77
2018-10-09T20:20:38.182Z,78.33
2018-10-09T20:23:06.419Z,73.73
2018-10-09T20:25:34.685Z,77.50
2018-10-09T20:28:02.921Z,79.97
2018-10-09T20:30:31.195Z,73.93
2018-10-09T20:32:59.452Z,76.23
2018-10-09T20:35:28.882Z,69.90
2018-10-09T20:37:57.180Z,69.07
2018-10-09T20:40:25.393Z,78.40
2018-10-09T20:42:53.604Z,74.63
2018-10-09T20:45:21.872Z,77.57
2018-10-09T20:47:50.121Z,78.03
2018-10-09T20:50:18.814Z,79.10
2018-10-09T20:52:47.088Z,78.90
2018-10-09T20:55:15.349Z,79.57
2018-10-09T20:57:43.610Z,78.73
2018-10-09T21:00:11.931Z,84.10
2018-10-09T21:02:40.135Z,73.97
2018-10-09T21:05:08.473Z,75.57
2018-10-09T21:07:36.728Z,80.43
2018-10-09T21:10:05.039Z,79.10
2018-10-09T21:12:33.299Z,78.03
2018-10-09T21:15:01.846Z,70.00
2018-10-09T21:17:30.248Z,81.90
2018-10-09T21:19:58.718Z,81.80
2018-10-09T21:22:27.033Z,83.43
2018-10-09T21:24:55.285Z,85.53
2018-10-09T21:27:23.662Z,82.17
2018-10-09T21:29:51.892Z,82.77
2018-10-09T21:32:20.196Z,81.13
2018-10-09T21:34:48.489Z,78.27
2018-10-09T21:37:16.734Z,87.20
2018-10-09T21:39:45.058Z,79.73
2018-10-09T21:42:13.304Z,82.50
2018-10-09T21:44:41.636Z,86.50
2018-10-09T21:47:10.040Z,79.97
2018-10-09T21:49:38.282Z,79.20
2018-10-09T21:52:07.151Z,81.03
2018-10-09T21:54:35.433Z,79.50
2018-10-09T21:57:03.881Z,78.17
2018-10-09T21:59:32.103Z,81.83
2018-10-09T22:02:00.974Z,78.00
2018-10-09T22:04:29.222Z,77.63
2018-10-09T22:06:57.421Z,86.07
2018-10-09T22:09:25.774Z,83.60
2018-10-09T22:11:54.026Z,85.57
2018-10-09T22:14:22.313Z,76.73
2018-10-09T22:16:50.518Z,74.40
2018-10-09T22:19:18.836Z,79.23
2018-10-09T22:21:47.402Z,77.87
2018-10-09T22:24:15.660Z,76.63
2018-10-09T22:26:43.888Z,82.27
2018-10-09T22:29:12.120Z,78.13
2018-10-09T22:31:40.371Z,71.40
2018-10-09T22:34:08.618Z,71.20
2018-10-09T22:36:36.850Z,65.73
2018-10-09T22:39:06.444Z,74.97
2018-10-09T22:41:34.773Z,77.00
2018-10-09T22:44:03.066Z,73.80
2018-10-09T22:46:31.319Z,70.17
2018-10-09T22:48:59.521Z,74.17
2018-10-09T22:51:27.758Z,70.17
2018-10-09T22:53:55.941Z,80.33
2018-10-09T22:56:24.176Z,81.20
2018-10-09T22:58:52.464Z,78.30
2018-10-09T23:01:20.670Z,69.97
2018-10-09T23:03:48.874Z,69.47
2018-10-09T23:06:17.129Z,69.57
2018-10-09T23:08:45.337Z,72.80
2018-10-09T23:11:13.587Z,74.20
2018-10-09T23:13:41.786Z,69.53
2018-10-09T23:16:09.991Z,71.23
2018-10-09T23:18:38.243Z,74.10
2018-10-09T23:21:06.812Z,66.73
2018-10-09T23:23:35.045Z,73.57
2018-10-09T23:26:03.281Z,70.37
2018-10-09T23:28:31.484Z,77.97
2018-10-09T23:30:59.727Z,74.43
2018-10-09T23:33:27.916Z,75.00
2018-10-09T23:35:56.162Z,80.17
2018-10-09T23:38:24.391Z,68.20
2018-10-09T23:40:52.603Z,72.83
2018-10-09T23:43:20.930Z,75.70
2018-10-09T23:45:49.134Z,77.57
2018-10-09T23:48:17.355Z,70.10
2018-10-09T23:50:45.603Z,73.60
2018-10-09T23:53:13.808Z,73.03
2018-10-09T23:55:42.050Z,75.87
2018-10-09T23:58:10.313Z,78.90
